createdAt,value
2019-01-26T00:00:46.064Z,9.03
2019-01-26T00:03:16.002Z,8.00
2019-01-26T00:05:45.527Z,11.43
2019-01-26T00:08:15.367Z,9.73
2019-01-26T00:10:44.941Z,12.73
2019-01-26T00:13:17.254Z,13.63
2019-01-26T00:15:46.849Z,11.90
2019-01-26T00:18:21.475Z,10.57
2019-01-26T00:20:50.848Z,12.80
2019-01-26T00:23:23.953Z,10.58
2019-01-26T00:25:53.484Z,14.40
2019-01-26T00:28:24.782Z,13.97
2019-01-26T00:30:54.302Z,10.83
2019-01-26T00:33:26.926Z,9.90
2019-01-26T00:36:00.154Z,9.33
2019-01-26T00:38:30.218Z,8.30
2019-01-26T00:40:59.546Z,7.63
2019-01-26T00:43:30.896Z,9.80
2019-01-26T00:46:00.676Z,7.80
2019-01-26T00:48:30.126Z,7.43
2019-01-26T00:50:59.746Z,11.22
2019-01-26T00:53:30.706Z,9.17
2019-01-26T00:56:01.526Z,8.25
2019-01-26T00:58:33.531Z,8.90
2019-01-26T01:01:03.769Z,8.80
2019-01-26T01:03:33.541Z,8.57
2019-01-26T01:06:03.409Z,9.17
2019-01-26T01:08:36.065Z,11.50
2019-01-26T01:11:10.806Z,7.90
2019-01-26T01:13:42.343Z,8.90
2019-01-26T01:16:11.778Z,8.07
2019-01-26T01:18:41.315Z,9.03
2019-01-26T01:21:10.954Z,9.30
2019-01-26T01:23:42.385Z,8.90
2019-01-26T01:26:12.602Z,11.93
2019-01-26T01:28:42.449Z,12.20
2019-01-26T01:31:11.967Z,8.73
2019-01-26T01:33:41.747Z,10.00
2019-01-26T01:36:11.279Z,9.90
2019-01-26T01:38:42.298Z,10.83
2019-01-26T01:41:12.013Z,9.60
2019-01-26T01:43:41.589Z,11.75
2019-01-26T01:46:11.740Z,10.40
2019-01-26T01:48:41.381Z,10.50
2019-01-26T01:51:12.799Z,9.57
2019-01-26T01:53:44.018Z,8.50
2019-01-26T01:56:13.998Z,8.40
2019-01-26T01:58:45.399Z,7.60
2019-01-26T02:01:20.800Z,7.57
2019-01-26T02:03:48.016Z,8.00
2019-01-26T02:06:17.775Z,8.33
2019-01-26T02:08:47.463Z,7.53
2019-01-26T02:11:17.329Z,10.23
2019-01-26T02:13:46.757Z,9.87
2019-01-26T02:16:16.442Z,10.93
2019-01-26T02:18:46.440Z,10.35
2019-01-26T02:21:16.738Z,11.47
2019-01-26T02:23:46.556Z,11.20
2019-01-26T02:26:15.912Z,11.33
2019-01-26T02:28:45.417Z,15.20
2019-01-26T02:31:15.320Z,11.93
2019-01-26T02:33:45.009Z,14.20
2019-01-26T02:36:14.999Z,15.23
2019-01-26T02:38:46.485Z,16.63
2019-01-26T02:41:16.274Z,16.40
2019-01-26T02:43:46.756Z,14.60
2019-01-26T02:46:16.237Z,16.52
2019-01-26T02:48:45.613Z,17.43
2019-01-26T02:51:16.900Z,18.30
2019-01-26T02:53:46.390Z,17.87
2019-01-26T02:56:16.291Z,16.60
2019-01-26T02:58:45.842Z,20.05
2019-01-26T03:01:15.534Z,20.75
2019-01-26T03:03:44.963Z,22.47
2019-01-26T03:06:14.476Z,20.00
2019-01-26T03:08:45.840Z,22.97
2019-01-26T03:11:15.201Z,24.07
2019-01-26T03:13:50.487Z,28.30
2019-01-26T03:16:20.084Z,25.92
2019-01-26T03:18:49.880Z,28.65
2019-01-26T03:21:20.236Z,31.33
2019-01-26T03:23:52.353Z,30.63
2019-01-26T03:26:22.335Z,29.60
2019-01-26T03:28:51.897Z,27.60
2019-01-26T03:31:24.126Z,30.77
2019-01-26T03:33:53.524Z,29.13
2019-01-26T03:36:22.927Z,29.23
2019-01-26T03:38:52.418Z,29.50
2019-01-26T03:41:22.283Z,27.67
2019-01-26T03:43:51.838Z,36.67
2019-01-26T03:46:23.552Z,31.90
2019-01-26T03:48:52.731Z,29.40
2019-01-26T03:51:29.272Z,33.00
2019-01-26T03:54:02.203Z,30.10
2019-01-26T03:56:34.690Z,39.50
2019-01-26T03:59:04.836Z,31.73
2019-01-26T04:01:38.342Z,32.33
2019-01-26T04:04:07.934Z,29.70
2019-01-26T04:06:37.679Z,33.97
2019-01-26T04:09:09.120Z,37.50
2019-01-26T04:11:38.611Z,39.10
2019-01-26T04:14:08.577Z,35.33
2019-01-26T04:16:37.995Z,31.33
2019-01-26T04:19:11.596Z,33.93
2019-01-26T04:21:41.144Z,36.97
2019-01-26T04:24:28.969Z,35.53
2019-01-26T04:27:04.109Z,37.87
2019-01-26T04:29:34.222Z,38.73
2019-01-26T04:32:03.834Z,35.93
2019-01-26T04:34:33.376Z,34.48
2019-01-26T04:37:03.221Z,35.73
2019-01-26T04:39:34.273Z,37.60
2019-01-26T04:42:04.744Z,39.15
2019-01-26T04:44:36.898Z,39.10
2019-01-26T04:47:11.624Z,40.57
2019-01-26T04:49:41.266Z,38.27
2019-01-26T04:52:10.997Z,39.63
2019-01-26T04:54:40.523Z,39.03
2019-01-26T04:57:09.942Z,36.27
2019-01-26T04:59:39.451Z,37.10
2019-01-26T05:02:10.734Z,38.07
2019-01-26T05:04:40.295Z,38.33
2019-01-26T05:07:10.037Z,39.42
2019-01-26T05:09:40.894Z,38.33
2019-01-26T05:12:11.001Z,36.73
2019-01-26T05:14:40.450Z,39.20
2019-01-26T05:17:14.034Z,36.65
2019-01-26T05:19:45.271Z,34.90
2019-01-26T05:22:14.883Z,35.43
2019-01-26T05:24:44.677Z,37.27
2019-01-26T05:27:22.713Z,37.60
2019-01-26T05:29:49.669Z,36.23
2019-01-26T05:32:24.930Z,40.77
2019-01-26T05:34:54.697Z,36.13
2019-01-26T05:37:24.076Z,37.95
2019-01-26T05:39:54.086Z,38.70
2019-01-26T05:42:30.672Z,38.70
2019-01-26T05:45:00.436Z,38.08
2019-01-26T05:47:31.910Z,33.10
2019-01-26T05:50:03.077Z,38.37
2019-01-26T05:52:32.815Z,35.17
2019-01-26T05:55:03.471Z,36.75
2019-01-26T05:57:38.047Z,32.93
2019-01-26T06:00:19.406Z,34.33
2019-01-26T06:02:48.889Z,37.10
2019-01-26T06:05:19.626Z,35.52
2019-01-26T06:07:50.145Z,38.67
2019-01-26T06:10:23.216Z,40.97
2019-01-26T06:12:53.208Z,33.10
2019-01-26T06:15:22.806Z,32.57
2019-01-26T06:17:55.744Z,41.13
2019-01-26T06:20:25.485Z,33.67
2019-01-26T06:23:02.719Z,34.03
2019-01-26T06:25:35.523Z,31.07
2019-01-26T06:28:04.975Z,30.80
2019-01-26T06:30:34.416Z,29.83
2019-01-26T06:33:03.834Z,25.63
2019-01-26T06:35:33.444Z,29.53
2019-01-26T06:38:03.118Z,27.70
2019-01-26T06:40:32.470Z,28.15
2019-01-26T06:43:01.867Z,24.50
2019-01-26T06:45:32.411Z,25.57
2019-01-26T06:48:02.453Z,25.23
2019-01-26T06:50:32.071Z,22.17
2019-01-26T06:53:01.443Z,22.97
2019-01-26T06:55:30.835Z,28.67
2019-01-26T06:58:00.206Z,23.70
2019-01-26T07:00:30.111Z,23.80
2019-01-26T07:02:59.997Z,19.07
2019-01-26T07:05:49.201Z,19.57
2019-01-26T07:08:18.572Z,16.87
2019-01-26T07:10:47.954Z,19.40
2019-01-26T07:13:17.337Z,14.73
2019-01-26T07:15:46.718Z,15.83
2019-01-26T07:18:16.101Z,15.60
2019-01-26T07:20:45.787Z,17.80
2019-01-26T07:23:15.170Z,18.27
2019-01-26T07:25:44.563Z,20.67
2019-01-26T07:28:13.966Z,18.00
2019-01-26T07:30:43.345Z,13.75
2019-01-26T07:33:12.816Z,16.02
2019-01-26T07:35:42.229Z,18.60
2019-01-26T07:38:13.610Z,16.12
2019-01-26T07:40:42.966Z,17.73
2019-01-26T07:43:12.350Z,16.63
2019-01-26T07:45:41.756Z,14.57
2019-01-26T07:48:16.746Z,17.27
2019-01-26T07:50:42.386Z,13.60
2019-01-26T07:53:11.782Z,13.80
2019-01-26T07:55:41.159Z,14.00
2019-01-26T07:58:10.529Z,15.98
2019-01-26T08:00:42.850Z,14.58
2019-01-26T08:03:12.227Z,14.47
2019-01-26T08:05:42.099Z,13.83
2019-01-26T08:08:11.492Z,16.27
2019-01-26T08:10:40.892Z,13.83
2019-01-26T08:13:10.654Z,13.63
2019-01-26T08:15:40.037Z,13.57
2019-01-26T08:18:09.406Z,13.53
2019-01-26T08:20:38.790Z,16.07
2019-01-26T08:23:08.153Z,15.93
2019-01-26T08:25:37.543Z,11.50
2019-01-26T08:28:06.944Z,13.38
2019-01-26T08:30:37.133Z,16.75
2019-01-26T08:33:06.585Z,15.40
2019-01-26T08:35:36.276Z,14.90
2019-01-26T08:38:06.370Z,13.65
2019-01-26T08:40:35.692Z,12.73
2019-01-26T08:43:05.322Z,14.00
2019-01-26T08:45:34.719Z,14.13
2019-01-26T08:48:04.720Z,12.60
2019-01-26T08:50:34.234Z,13.22
2019-01-26T08:53:03.738Z,14.00
2019-01-26T08:55:33.120Z,13.07
2019-01-26T08:58:02.483Z,12.13
2019-01-26T09:00:31.870Z,12.87
2019-01-26T09:03:02.884Z,13.47
2019-01-26T09:05:37.397Z,12.37
2019-01-26T09:08:10.654Z,14.63
2019-01-26T09:10:42.253Z,12.37
2019-01-26T09:13:16.863Z,13.10
2019-01-26T09:15:46.619Z,13.27
2019-01-26T09:18:16.414Z,13.03
2019-01-26T09:20:46.091Z,14.80
2019-01-26T09:23:15.891Z,12.60
2019-01-26T09:25:45.502Z,12.27
2019-01-26T09:28:16.955Z,14.80
2019-01-26T09:30:54.509Z,16.77
2019-01-26T09:33:24.376Z,16.67
2019-01-26T09:35:56.501Z,14.03
2019-01-26T09:38:29.498Z,14.17
2019-01-26T09:40:59.301Z,13.97
2019-01-26T09:43:30.447Z,16.50
2019-01-26T09:46:02.830Z,14.78
2019-01-26T09:48:35.186Z,15.73
2019-01-26T09:51:11.107Z,17.90
2019-01-26T09:53:41.248Z,16.43
2019-01-26T09:56:12.743Z,15.03
2019-01-26T09:58:43.299Z,15.30
2019-01-26T10:01:13.063Z,19.50
2019-01-26T10:03:45.487Z,19.10
2019-01-26T10:06:15.065Z,16.47
2019-01-26T10:08:44.849Z,15.57
2019-01-26T10:11:18.657Z,16.70
2019-01-26T10:13:48.324Z,13.63
2019-01-26T10:16:20.048Z,18.90
2019-01-26T10:18:53.668Z,17.87
2019-01-26T10:21:21.664Z,17.90
2019-01-26T10:23:51.372Z,16.77
2019-01-26T10:26:20.995Z,20.07
2019-01-26T10:28:56.902Z,17.60
2019-01-26T10:31:28.474Z,17.25
2019-01-26T10:33:58.326Z,17.23
2019-01-26T10:36:29.790Z,16.73
2019-01-26T10:39:00.853Z,16.33
2019-01-26T10:41:32.376Z,15.20
2019-01-26T10:44:02.181Z,15.85
2019-01-26T10:46:31.816Z,19.20
2019-01-26T10:49:01.488Z,21.03
2019-01-26T10:51:33.353Z,19.45
2019-01-26T10:54:03.226Z,18.90
2019-01-26T10:56:33.178Z,21.70
2019-01-26T10:59:04.880Z,18.03
2019-01-26T11:01:35.447Z,17.05
2019-01-26T11:04:05.055Z,20.93
2019-01-26T11:06:36.257Z,17.97
2019-01-26T11:09:09.325Z,20.60
2019-01-26T11:11:39.944Z,21.50
2019-01-26T11:14:10.547Z,19.07
2019-01-26T11:16:40.511Z,20.60
2019-01-26T11:19:10.383Z,18.80
2019-01-26T11:21:40.433Z,20.50
2019-01-26T11:24:09.970Z,19.87
2019-01-26T11:26:48.947Z,18.97
2019-01-26T11:29:14.177Z,20.20
2019-01-26T11:31:45.981Z,18.80
2019-01-26T11:34:18.623Z,18.13
2019-01-26T11:36:49.928Z,17.17
2019-01-26T11:39:19.232Z,18.27
2019-01-26T11:41:48.627Z,18.03
2019-01-26T11:44:18.003Z,17.37
2019-01-26T11:46:47.458Z,17.50
2019-01-26T11:49:16.843Z,16.10
2019-01-26T11:51:46.302Z,14.85
2019-01-26T11:54:15.876Z,14.40
2019-01-26T11:56:47.232Z,11.53
2019-01-26T11:59:21.803Z,12.20
2019-01-26T12:01:53.207Z,10.93
2019-01-26T12:04:34.452Z,9.95
2019-01-26T12:07:05.986Z,9.03
2019-01-26T12:09:35.989Z,8.90
2019-01-26T12:12:08.814Z,6.57
2019-01-26T12:14:41.891Z,6.97
2019-01-26T12:17:13.271Z,9.23
2019-01-26T12:19:42.793Z,7.13
2019-01-26T12:22:12.896Z,5.53
2019-01-26T12:24:44.811Z,5.73
2019-01-26T12:27:16.175Z,4.60
2019-01-26T12:29:46.977Z,5.30
2019-01-26T12:32:16.569Z,8.57
2019-01-26T12:34:46.311Z,7.27
2019-01-26T12:37:15.998Z,8.63
2019-01-26T12:39:45.799Z,6.60
2019-01-26T12:42:17.057Z,7.80
2019-01-26T12:44:46.776Z,7.13
2019-01-26T12:51:04.929Z,7.60
2019-01-26T12:53:35.197Z,7.50
2019-01-26T12:56:07.121Z,8.40
2019-01-26T12:58:36.975Z,9.53
2019-01-26T13:01:10.008Z,7.93
2019-01-26T13:03:41.436Z,12.20
2019-01-26T13:06:12.613Z,10.83
2019-01-26T13:08:42.508Z,6.53
2019-01-26T13:11:19.666Z,8.23
2019-01-26T13:13:53.000Z,8.60
2019-01-26T13:16:23.271Z,7.13
2019-01-26T13:18:54.712Z,8.73
2019-01-26T13:21:24.620Z,9.60
2019-01-26T13:23:56.035Z,9.67
2019-01-26T13:26:26.168Z,11.27
2019-01-26T13:28:58.027Z,8.30
2019-01-26T13:31:29.357Z,9.50
2019-01-26T13:34:01.386Z,6.30
2019-01-26T13:36:30.619Z,9.30
2019-01-26T13:39:00.035Z,6.77
2019-01-26T13:41:29.402Z,5.60
2019-01-26T13:43:58.785Z,6.90
2019-01-26T13:46:28.487Z,7.00
2019-01-26T13:48:58.068Z,5.83
2019-01-26T13:51:27.702Z,5.25
2019-01-26T13:53:57.066Z,4.70
2019-01-26T13:56:26.442Z,6.27
2019-01-26T13:58:55.802Z,5.97
2019-01-26T14:01:25.175Z,4.77
2019-01-26T14:03:54.587Z,6.40
2019-01-26T14:06:24.015Z,4.87
2019-01-26T14:08:53.368Z,4.03
2019-01-26T14:11:23.127Z,4.60
2019-01-26T14:13:52.505Z,4.33
2019-01-26T14:16:21.867Z,4.47
2019-01-26T14:18:51.247Z,3.87
2019-01-26T14:21:20.623Z,4.07
2019-01-26T14:23:49.988Z,5.07
2019-01-26T14:26:20.374Z,5.16
2019-01-26T14:28:50.040Z,4.70
2019-01-26T14:31:19.685Z,4.13
2019-01-26T14:33:49.130Z,4.17
2019-01-26T14:36:18.484Z,4.80
2019-01-26T14:38:48.160Z,4.77
2019-01-26T14:41:17.518Z,4.05
2019-01-26T14:43:46.910Z,4.03
2019-01-26T14:46:17.405Z,4.67
2019-01-26T14:48:46.784Z,3.97
2019-01-26T14:51:16.467Z,6.60
2019-01-26T14:53:47.715Z,4.57
2019-01-26T14:56:17.918Z,3.67
2019-01-26T14:58:47.291Z,5.43
2019-01-26T15:01:16.653Z,4.27
2019-01-26T15:03:46.050Z,5.27
2019-01-26T15:06:15.417Z,3.90
2019-01-26T15:08:45.279Z,4.50
2019-01-26T15:11:14.919Z,6.33
2019-01-26T15:13:44.293Z,3.47
2019-01-26T15:16:14.792Z,3.50
2019-01-26T15:18:44.414Z,3.53
2019-01-26T15:21:13.786Z,4.08
2019-01-26T15:23:43.169Z,3.30
2019-01-26T15:26:13.057Z,3.50
2019-01-26T15:28:43.010Z,3.23
2019-01-26T15:31:12.468Z,4.47
2019-01-26T15:33:41.850Z,3.37
2019-01-26T15:36:11.982Z,3.67
2019-01-26T15:38:41.424Z,4.27
2019-01-26T15:41:10.775Z,2.75
2019-01-26T15:43:40.158Z,2.80
2019-01-26T15:46:09.880Z,2.60
2019-01-26T15:48:39.502Z,3.80
2019-01-26T15:51:09.152Z,4.37
2019-01-26T15:53:38.527Z,3.53
2019-01-26T15:56:07.899Z,3.67
2019-01-26T15:58:37.266Z,4.80
2019-01-26T16:01:08.066Z,4.70
2019-01-26T16:03:37.434Z,2.90
2019-01-26T16:06:06.861Z,3.07
2019-01-26T16:08:36.263Z,2.75
2019-01-26T16:11:05.625Z,2.60
2019-01-26T16:13:35.301Z,3.00
2019-01-26T16:16:04.840Z,3.10
2019-01-26T16:18:34.594Z,4.67
2019-01-26T16:21:04.124Z,3.40
2019-01-26T16:23:33.652Z,2.50
2019-01-26T16:26:03.088Z,3.60
2019-01-26T16:28:32.456Z,4.37
2019-01-26T16:31:02.577Z,2.63
2019-01-26T16:33:31.943Z,3.57
2019-01-26T16:36:01.597Z,2.73
2019-01-26T16:38:31.218Z,3.10
2019-01-26T16:41:00.596Z,2.75
2019-01-26T16:43:29.971Z,4.27
2019-01-26T16:45:59.313Z,2.83
2019-01-26T16:48:28.681Z,2.67
2019-01-26T16:50:58.062Z,3.67
2019-01-26T16:53:27.409Z,3.37
2019-01-26T16:55:56.794Z,3.33
2019-01-26T16:58:26.399Z,4.00
2019-01-26T17:00:56.959Z,4.57
2019-01-26T17:03:26.319Z,5.30
2019-01-26T17:05:55.699Z,4.27
2019-01-26T17:08:25.069Z,3.20
2019-01-26T17:10:54.442Z,5.07
2019-01-26T17:13:23.820Z,5.03
2019-01-26T17:15:53.202Z,5.00
2019-01-26T17:18:22.867Z,4.10
2019-01-26T17:20:52.236Z,5.37
2019-01-26T17:23:22.217Z,4.27
2019-01-26T17:25:51.583Z,4.72
2019-01-26T17:28:20.949Z,4.13
2019-01-26T17:30:50.438Z,4.20
2019-01-26T17:33:19.952Z,5.57
2019-01-26T17:35:49.353Z,4.20
2019-01-26T17:38:18.733Z,4.17
2019-01-26T17:40:54.208Z,4.57
2019-01-26T17:43:19.530Z,5.13
2019-01-26T17:45:48.885Z,5.20
2019-01-26T17:48:18.272Z,5.05
2019-01-26T17:50:47.681Z,4.20
2019-01-26T17:53:17.044Z,4.87
2019-01-26T17:55:46.763Z,4.13
2019-01-26T17:58:16.128Z,4.03
2019-01-26T18:00:57.771Z,3.10
2019-01-26T18:03:27.592Z,3.37
2019-01-26T18:05:57.203Z,4.17
2019-01-26T18:08:26.578Z,5.43
2019-01-26T18:10:56.057Z,4.08
2019-01-26T18:13:25.449Z,5.37
2019-01-26T18:15:54.867Z,3.60
2019-01-26T18:18:24.215Z,4.40
2019-01-26T18:20:53.590Z,3.80
2019-01-26T18:23:24.815Z,3.63
2019-01-26T18:25:54.460Z,4.10
2019-01-26T18:28:24.071Z,4.62
2019-01-26T18:31:14.501Z,4.30
2019-01-26T18:33:43.878Z,2.93
2019-01-26T18:36:13.267Z,3.47
2019-01-26T18:38:42.692Z,3.40
2019-01-26T18:41:12.376Z,3.40
2019-01-26T18:43:41.862Z,6.80
2019-01-26T18:46:11.308Z,3.17
2019-01-26T18:48:40.676Z,2.93
2019-01-26T18:51:10.231Z,3.50
2019-01-26T18:53:39.594Z,5.43
2019-01-26T18:56:09.211Z,3.57
2019-01-26T18:58:38.619Z,4.37
2019-01-26T19:01:08.642Z,3.53
2019-01-26T19:03:45.845Z,3.87
2019-01-26T19:06:15.243Z,4.10
2019-01-26T19:08:44.902Z,3.40
2019-01-26T19:11:14.329Z,5.23
2019-01-26T19:13:44.133Z,3.47
2019-01-26T19:16:13.552Z,3.33
2019-01-26T19:18:42.934Z,3.40
2019-01-26T19:21:12.319Z,4.33
2019-01-26T19:23:41.725Z,3.43
2019-01-26T19:26:11.241Z,2.67
2019-01-26T19:28:40.596Z,2.63
2019-01-26T19:31:10.005Z,3.00
2019-01-26T19:33:39.353Z,2.60
2019-01-26T19:36:09.855Z,2.90
2019-01-26T19:38:39.229Z,3.30
2019-01-26T19:41:08.611Z,2.42
2019-01-26T19:43:38.252Z,2.80
2019-01-26T19:46:07.679Z,2.50
2019-01-26T19:48:37.285Z,2.98
2019-01-26T19:51:09.962Z,3.00
2019-01-26T19:53:37.895Z,2.50
2019-01-26T19:56:07.646Z,2.40
2019-01-26T19:58:37.013Z,3.20
2019-01-26T20:01:06.405Z,3.00
2019-01-26T20:03:35.854Z,2.17
2019-01-26T20:06:05.846Z,2.47
2019-01-26T20:08:35.265Z,2.55
2019-01-26T20:11:04.969Z,3.87
2019-01-26T20:13:34.334Z,4.07
2019-01-26T20:16:05.493Z,2.60
2019-01-26T20:18:35.147Z,2.37
2019-01-26T20:21:04.656Z,2.00
2019-01-26T20:23:34.039Z,2.17
2019-01-26T20:26:04.274Z,2.60
2019-01-26T20:28:36.296Z,2.47
2019-01-26T20:31:07.829Z,2.60
2019-01-26T20:33:39.463Z,2.50
2019-01-26T20:36:13.482Z,1.90
2019-01-26T20:38:42.948Z,3.20
2019-01-26T20:41:12.642Z,2.63
2019-01-26T20:43:48.067Z,2.80
2019-01-26T20:46:18.283Z,1.97
2019-01-26T20:48:48.687Z,2.12
2019-01-26T20:51:24.692Z,2.07
2019-01-26T20:53:50.216Z,2.25
2019-01-26T20:56:19.643Z,2.10
2019-01-26T20:58:50.893Z,2.70
2019-01-26T21:01:22.140Z,3.00
2019-01-26T21:03:53.475Z,3.20
2019-01-26T21:06:24.379Z,2.20
2019-01-26T21:08:55.505Z,3.30
2019-01-26T21:11:27.541Z,2.30
2019-01-26T21:13:59.408Z,1.67
2019-01-26T21:16:31.000Z,2.13
2019-01-26T21:19:02.170Z,3.03
2019-01-26T21:21:32.100Z,1.80
2019-01-26T21:24:04.654Z,1.73
2019-01-26T21:26:34.500Z,1.50
2019-01-26T21:29:04.641Z,1.27
2019-01-26T21:31:36.320Z,1.53
2019-01-26T21:34:12.082Z,1.30
2019-01-26T21:36:44.772Z,1.40
2019-01-26T21:39:14.169Z,1.40
2019-01-26T21:41:44.220Z,2.20
2019-01-26T21:44:19.694Z,1.07
2019-01-26T21:46:54.956Z,0.90
2019-01-26T21:49:26.318Z,0.90
2019-01-26T21:51:59.363Z,1.30
2019-01-26T21:54:29.109Z,1.30
2019-01-26T21:56:59.575Z,0.78
2019-01-26T21:59:31.356Z,1.00
2019-01-26T22:02:09.306Z,1.03
2019-01-26T22:04:38.764Z,1.00
2019-01-26T22:07:11.798Z,0.60
2019-01-26T22:09:41.282Z,0.60
2019-01-26T22:12:12.778Z,0.80
2019-01-26T22:14:42.800Z,0.80
2019-01-26T22:17:12.236Z,0.70
2019-01-26T22:19:42.847Z,0.73
2019-01-26T22:22:12.440Z,0.72
2019-01-26T22:24:48.763Z,0.72
2019-01-26T22:27:19.758Z,0.60
2019-01-26T22:29:49.381Z,1.12
2019-01-26T22:32:20.565Z,0.70
2019-01-26T22:34:50.235Z,0.70
2019-01-26T22:37:23.630Z,0.60
2019-01-26T22:39:57.140Z,0.70
2019-01-26T22:42:29.532Z,0.50
2019-01-26T22:44:58.904Z,0.67
2019-01-26T22:47:31.001Z,2.60
2019-01-26T22:50:01.507Z,0.90
2019-01-26T22:52:31.201Z,0.70
2019-01-26T22:55:05.801Z,0.70
2019-01-26T22:57:35.281Z,1.30
2019-01-26T23:00:17.264Z,1.13
2019-01-26T23:02:46.891Z,1.10
2019-01-26T23:05:43.869Z,2.57
2019-01-26T23:08:17.802Z,1.20
2019-01-26T23:11:34.345Z,1.40
2019-01-26T23:14:09.685Z,1.37
2019-01-26T23:17:11.355Z,0.90
2019-01-26T23:19:55.648Z,1.33
2019-01-26T23:23:05.244Z,1.00
2019-01-26T23:25:39.267Z,0.77
2019-01-26T23:28:37.359Z,0.80
2019-01-26T23:31:19.202Z,0.77
2019-01-26T23:33:49.318Z,0.83
2019-01-26T23:36:18.922Z,0.65
2019-01-26T23:38:48.623Z,1.30
2019-01-26T23:41:21.830Z,0.88
2019-01-26T23:43:51.649Z,0.82
2019-01-26T23:46:21.035Z,0.70
2019-01-26T23:48:50.403Z,1.00
2019-01-26T23:51:19.838Z,0.70
2019-01-26T23:53:49.309Z,0.90
2019-01-26T23:56:19.766Z,0.83
2019-01-26T23:58:49.157Z,1.93
